sensor_id;sensor_type;location;lat;lon;timestamp;pressure;altitude;pressure_sealevel;temperature;humidity
81802;BME280;71199;52.490;5.448;2024-03-02T00:00:08;99854.81;;;7.65;98.01
81802;BME280;71199;52.490;5.448;2024-03-02T00:02:43;99841.47;;;7.70;97.96
81802;BME280;71199;52.490;5.448;2024-03-02T00:05:19;99839.41;;;7.72;98.20
81802;BME280;71199;52.490;5.448;2024-03-02T00:07:56;99844.16;;;7.78;97.06
81802;BME280;71199;52.490;5.448;2024-03-02T00:10:25;99841.88;;;7.82;97.01
81802;BME280;71199;52.490;5.448;2024-03-02T00:12:57;99849.06;;;7.83;97.49
81802;BME280;71199;52.490;5.448;2024-03-02T00:15:46;99838.31;;;7.81;97.42
81802;BME280;71199;52.490;5.448;2024-03-02T00:18:34;99851.47;;;7.78;97.62
81802;BME280;71199;52.490;5.448;2024-03-02T00:20:58;99851.00;;;7.74;98.18
81802;BME280;71199;52.490;5.448;2024-03-02T00:23:26;99852.16;;;7.80;97.83
81802;BME280;71199;52.490;5.448;2024-03-02T00:25:55;99835.75;;;7.80;97.67
81802;BME280;71199;52.490;5.448;2024-03-02T00:28:34;99846.69;;;7.80;98.08
81802;BME280;71199;52.490;5.448;2024-03-02T00:31:13;99852.66;;;7.83;98.74
81802;BME280;71199;52.490;5.448;2024-03-02T00:33:46;99848.56;;;7.79;98.58
81802;BME280;71199;52.490;5.448;2024-03-02T00:36:13;99858.78;;;7.85;98.27
81802;BME280;71199;52.490;5.448;2024-03-02T00:38:46;99854.16;;;7.86;98.29
81802;BME280;71199;52.490;5.448;2024-03-02T00:41:17;99855.88;;;7.87;97.78
81802;BME280;71199;52.490;5.448;2024-03-02T00:46:19;99876.53;;;7.90;98.42
81802;BME280;71199;52.490;5.448;2024-03-02T00:48:53;99869.31;;;7.97;97.76
81802;BME280;71199;52.490;5.448;2024-03-02T00:51:21;99881.16;;;7.89;98.55
81802;BME280;71199;52.490;5.448;2024-03-02T00:53:47;99882.53;;;7.93;98.19
81802;BME280;71199;52.490;5.448;2024-03-02T00:56:13;99885.78;;;7.88;98.82
81802;BME280;71199;52.490;5.448;2024-03-02T00:58:39;99889.00;;;7.92;98.88
81802;BME280;71199;52.490;5.448;2024-03-02T01:01:05;99890.34;;;7.96;100.00
81802;BME280;71199;52.490;5.448;2024-03-02T01:03:32;99896.19;;;7.93;99.85
81802;BME280;71199;52.490;5.448;2024-03-02T01:05:57;99906.63;;;7.90;100.00
81802;BME280;71199;52.490;5.448;2024-03-02T01:08:23;99912.78;;;7.92;100.00
81802;BME280;71199;52.490;5.448;2024-03-02T01:10:49;99915.38;;;7.85;100.00
81802;BME280;71199;52.490;5.448;2024-03-02T01:13:14;99926.38;;;7.77;100.00
81802;BME280;71199;52.490;5.448;2024-03-02T01:15:39;99930.16;;;7.67;100.00
81802;BME280;71199;52.490;5.448;2024-03-02T01:18:05;99925.63;;;7.52;100.00
81802;BME280;71199;52.490;5.448;2024-03-02T01:20:31;99931.59;;;7.47;100.00
81802;BME280;71199;52.490;5.448;2024-03-02T01:22:56;99938.97;;;7.38;100.00
81802;BME280;71199;52.490;5.448;2024-03-02T01:25:22;99935.75;;;7.26;100.00
81802;BME280;71199;52.490;5.448;2024-03-02T01:27:47;99926.56;;;7.19;100.00
81802;BME280;71199;52.490;5.448;2024-03-02T01:30:13;99936.81;;;7.09;100.00
81802;BME280;71199;52.490;5.448;2024-03-02T01:32:38;99944.50;;;6.97;100.00
81802;BME280;71199;52.490;5.448;2024-03-02T01:35:05;99942.13;;;6.94;100.00
81802;BME280;71199;52.490;5.448;2024-03-02T01:37:30;99929.66;;;6.92;100.00
81802;BME280;71199;52.490;5.448;2024-03-02T01:39:56;99926.09;;;6.83;100.00
81802;BME280;71199;52.490;5.448;2024-03-02T01:42:21;99922.84;;;6.71;100.00
81802;BME280;71199;52.490;5.448;2024-03-02T01:44:47;99928.97;;;6.65;100.00
81802;BME280;71199;52.490;5.448;2024-03-02T01:47:13;99935.13;;;6.59;100.00
81802;BME280;71199;52.490;5.448;2024-03-02T01:49:38;99931.53;;;6.58;100.00
81802;BME280;71199;52.490;5.448;2024-03-02T01:52:06;99933.59;;;6.56;100.00
81802;BME280;71199;52.490;5.448;2024-03-02T01:54:31;99939.91;;;6.49;100.00
81802;BME280;71199;52.490;5.448;2024-03-02T01:56:56;99954.94;;;6.53;100.00
81802;BME280;71199;52.490;5.448;2024-03-02T01:59:22;99950.47;;;6.52;100.00
81802;BME280;71199;52.490;5.448;2024-03-02T02:01:47;99955.94;;;6.52;100.00
81802;BME280;71199;52.490;5.448;2024-03-02T02:04:13;99956.28;;;6.49;100.00
81802;BME280;71199;52.490;5.448;2024-03-02T02:06:38;99947.75;;;6.52;100.00
81802;BME280;71199;52.490;5.448;2024-03-02T02:09:04;99934.94;;;6.44;100.00
81802;BME280;71199;52.490;5.448;2024-03-02T02:11:29;99931.88;;;6.39;100.00
81802;BME280;71199;52.490;5.448;2024-03-02T02:13:55;99933.94;;;6.37;100.00
81802;BME280;71199;52.490;5.448;2024-03-02T02:16:23;99940.09;;;6.47;100.00
81802;BME280;71199;52.490;5.448;2024-03-02T02:18:48;99931.53;;;6.42;100.00
81802;BME280;71199;52.490;5.448;2024-03-02T02:21:14;99934.78;;;6.45;100.00
81802;BME280;71199;52.490;5.448;2024-03-02T02:23:39;99936.50;;;6.47;100.00
81802;BME280;71199;52.490;5.448;2024-03-02T02:26:04;99931.88;;;6.39;100.00
81802;BME280;71199;52.490;5.448;2024-03-02T02:28:30;99938.34;;;6.38;100.00
81802;BME280;71199;52.490;5.448;2024-03-02T02:30:55;99953.38;;;6.42;100.00
81802;BME280;71199;52.490;5.448;2024-03-02T02:33:21;99956.44;;;6.39;100.00
81802;BME280;71199;52.490;5.448;2024-03-02T02:35:47;99954.72;;;6.38;100.00
81802;BME280;71199;52.490;5.448;2024-03-02T02:38:12;99946.38;;;6.39;100.00
81802;BME280;71199;52.490;5.448;2024-03-02T02:40:38;99961.88;;;6.31;100.00
81802;BME280;71199;52.490;5.448;2024-03-02T02:43:03;99965.47;;;6.31;100.00
81802;BME280;71199;52.490;5.448;2024-03-02T02:45:29;99959.00;;;6.32;100.00
81802;BME280;71199;52.490;5.448;2024-03-02T02:47:54;99943.09;;;6.19;100.00
81802;BME280;71199;52.490;5.448;2024-03-02T02:50:20;99948.75;;;6.18;100.00
81802;BME280;71199;52.490;5.448;2024-03-02T02:52:45;99949.06;;;6.15;100.00
81802;BME280;71199;52.490;5.448;2024-03-02T02:55:12;99956.00;;;6.01;100.00
81802;BME280;71199;52.490;5.448;2024-03-02T02:57:40;99958.22;;;5.97;100.00
81802;BME280;71199;52.490;5.448;2024-03-02T03:00:11;99961.28;;;6.02;100.00
81802;BME280;71199;52.490;5.448;2024-03-02T03:02:42;99973.19;;;5.93;100.00
81802;BME280;71199;52.490;5.448;2024-03-02T03:05:09;99975.00;;;5.84;100.00
81802;BME280;71199;52.490;5.448;2024-03-02T03:07:35;99969.22;;;5.88;100.00
81802;BME280;71199;52.490;5.448;2024-03-02T03:10:02;99971.06;;;5.79;100.00
81802;BME280;71199;52.490;5.448;2024-03-02T03:12:28;99979.75;;;5.82;100.00
81802;BME280;71199;52.490;5.448;2024-03-02T03:14:54;99987.94;;;5.82;100.00
81802;BME280;71199;52.490;5.448;2024-03-02T03:17:20;99981.97;;;5.79;100.00
81802;BME280;71199;52.490;5.448;2024-03-02T03:19:46;99982.28;;;5.76;100.00
81802;BME280;71199;52.490;5.448;2024-03-02T03:22:11;99995.06;;;5.75;100.00
81802;BME280;71199;52.490;5.448;2024-03-02T03:24:36;99985.50;;;5.71;100.00
81802;BME280;71199;52.490;5.448;2024-03-02T03:27:02;99991.78;;;5.63;100.00
81802;BME280;71199;52.490;5.448;2024-03-02T03:29:28;99987.66;;;5.59;100.00
81802;BME280;71199;52.490;5.448;2024-03-02T03:31:53;99990.38;;;5.59;100.00
81802;BME280;71199;52.490;5.448;2024-03-02T03:34:18;99986.47;;;5.62;100.00
81802;BME280;71199;52.490;5.448;2024-03-02T03:36:44;99987.78;;;5.50;100.00
81802;BME280;71199;52.490;5.448;2024-03-02T03:39:09;99990.00;;;5.46;100.00
81802;BME280;71199;52.490;5.448;2024-03-02T03:41:34;99990.50;;;5.50;100.00
81802;BME280;71199;52.490;5.448;2024-03-02T03:44:00;99994.34;;;5.39;100.00
81802;BME280;71199;52.490;5.448;2024-03-02T03:46:25;99995.06;;;5.41;100.00
81802;BME280;71199;52.490;5.448;2024-03-02T03:48:50;99991.47;;;5.40;100.00
81802;BME280;71199;52.490;5.448;2024-03-02T03:51:16;100003.38;;;5.39;100.00
81802;BME280;71199;52.490;5.448;2024-03-02T03:53:41;100014.66;;;5.44;100.00
81802;BME280;71199;52.490;5.448;2024-03-02T03:56:06;100014.06;;;5.33;100.00
81802;BME280;71199;52.490;5.448;2024-03-02T03:58:32;100005.25;;;5.39;100.00
81802;BME280;71199;52.490;5.448;2024-03-02T04:00:57;100001.13;;;5.35;100.00
81802;BME280;71199;52.490;5.448;2024-03-02T04:03:22;100002.47;;;5.31;100.00
81802;BME280;71199;52.490;5.448;2024-03-02T04:05:48;100005.47;;;5.19;100.00
81802;BME280;71199;52.490;5.448;2024-03-02T04:08:13;100005.78;;;5.16;100.00
81802;BME280;71199;52.490;5.448;2024-03-02T04:10:40;100019.72;;;5.13;100.00
81802;BME280;71199;52.490;5.448;2024-03-02T04:13:07;100018.41;;;4.99;100.00
81802;BME280;71199;52.490;5.448;2024-03-02T04:15:32;100027.44;;;5.00;100.00
81802;BME280;71199;52.490;5.448;2024-03-02T04:17:58;100018.63;;;5.06;100.00
81802;BME280;71199;52.490;5.448;2024-03-02T04:20:23;100023.50;;;4.94;100.00
81802;BME280;71199;52.490;5.448;2024-03-02T04:22:48;100029.94;;;4.93;100.00
81802;BME280;71199;52.490;5.448;2024-03-02T04:25:14;100034.31;;;4.86;100.00
81802;BME280;71199;52.490;5.448;2024-03-02T04:27:39;100030.97;;;4.92;100.00
81802;BME280;71199;52.490;5.448;2024-03-02T04:30:05;100034.06;;;4.97;100.00
81802;BME280;71199;52.490;5.448;2024-03-02T04:32:31;100035.72;;;4.90;100.00
81802;BME280;71199;52.490;5.448;2024-03-02T04:34:56;100041.22;;;4.80;100.00
81802;BME280;71199;52.490;5.448;2024-03-02T04:37:22;100042.09;;;4.81;100.00
81802;BME280;71199;52.490;5.448;2024-03-02T04:39:47;100040.06;;;4.83;100.00
81802;BME280;71199;52.490;5.448;2024-03-02T04:42:12;100044.94;;;4.97;100.00
81802;BME280;71199;52.490;5.448;2024-03-02T04:44:38;100034.97;;;5.06;100.00
81802;BME280;71199;52.490;5.448;2024-03-02T04:47:04;100036.78;;;5.15;100.00
81802;BME280;71199;52.490;5.448;2024-03-02T04:49:29;100042.91;;;5.17;100.00
81802;BME280;71199;52.490;5.448;2024-03-02T04:51:55;100041.16;;;5.34;100.00
81802;BME280;71199;52.490;5.448;2024-03-02T04:54:22;100048.84;;;5.39;100.00
81802;BME280;71199;52.490;5.448;2024-03-02T04:56:47;100056.66;;;5.34;100.00
81802;BME280;71199;52.490;5.448;2024-03-02T04:59:19;100056.66;;;5.34;100.00
81802;BME280;71199;52.490;5.448;2024-03-02T05:01:45;100061.06;;;5.35;100.00
81802;BME280;71199;52.490;5.448;2024-03-02T05:04:11;100062.97;;;5.34;100.00
81802;BME280;71199;52.490;5.448;2024-03-02T05:06:39;100050.56;;;5.40;100.00
81802;BME280;71199;52.490;5.448;2024-03-02T05:09:06;100060.00;;;5.28;100.00
81802;BME280;71199;52.490;5.448;2024-03-02T05:11:31;100062.41;;;5.31;100.00
81802;BME280;71199;52.490;5.448;2024-03-02T05:14:03;100065.13;;;5.31;100.00
81802;BME280;71199;52.490;5.448;2024-03-02T05:16:28;100062.56;;;5.29;100.00
81802;BME280;71199;52.490;5.448;2024-03-02T05:18:54;100061.19;;;5.25;100.00
81802;BME280;71199;52.490;5.448;2024-03-02T05:21:19;100064.38;;;5.20;100.00
81802;BME280;71199;52.490;5.448;2024-03-02T05:23:44;100067.09;;;5.20;100.00
81802;BME280;71199;52.490;5.448;2024-03-02T05:26:10;100068.41;;;5.16;100.00
81802;BME280;71199;52.490;5.448;2024-03-02T05:28:38;100070.16;;;5.17;100.00
81802;BME280;71199;52.490;5.448;2024-03-02T05:31:04;100063.03;;;5.24;100.00
81802;BME280;71199;52.490;5.448;2024-03-02T05:33:30;100070.72;;;5.29;100.00
81802;BME280;71199;52.490;5.448;2024-03-02T05:35:57;100069.19;;;5.27;100.00
81802;BME280;71199;52.490;5.448;2024-03-02T05:38:22;100070.69;;;5.21;100.00
81802;BME280;71199;52.490;5.448;2024-03-02T05:40:48;100075.38;;;5.11;100.00
81802;BME280;71199;52.490;5.448;2024-03-02T05:43:13;100070.84;;;5.01;100.00
81802;BME280;71199;52.490;5.448;2024-03-02T05:45:39;100074.34;;;4.94;100.00
81802;BME280;71199;52.490;5.448;2024-03-02T05:48:08;100066.09;;;4.85;100.00
81802;BME280;71199;52.490;5.448;2024-03-02T05:50:34;100065.88;;;4.79;100.00
81802;BME280;71199;52.490;5.448;2024-03-02T05:53:00;100075.69;;;4.72;100.00
81802;BME280;71199;52.490;5.448;2024-03-02T05:55:25;100078.72;;;4.69;100.00
81802;BME280;71199;52.490;5.448;2024-03-02T05:57:50;100073.25;;;4.69;100.00
81802;BME280;71199;52.490;5.448;2024-03-02T06:00:45;100066.28;;;4.66;100.00
81802;BME280;71199;52.490;5.448;2024-03-02T06:03:10;100073.13;;;4.70;100.00
81802;BME280;71199;52.490;5.448;2024-03-02T06:05:35;100085.47;;;4.64;100.00
81802;BME280;71199;52.490;5.448;2024-03-02T06:08:01;100077.78;;;4.60;100.00
81802;BME280;71199;52.490;5.448;2024-03-02T06:10:26;100079.72;;;4.68;100.00
81802;BME280;71199;52.490;5.448;2024-03-02T06:12:51;100079.78;;;4.58;100.00
81802;BME280;71199;52.490;5.448;2024-03-02T06:15:17;100091.84;;;4.55;100.00
81802;BME280;71199;52.490;5.448;2024-03-02T06:17:42;100098.84;;;4.58;100.00
81802;BME280;71199;52.490;5.448;2024-03-02T06:20:08;100102.78;;;4.46;100.00
81802;BME280;71199;52.490;5.448;2024-03-02T06:22:34;100101.22;;;4.43;100.00
81802;BME280;71199;52.490;5.448;2024-03-02T06:25:00;100105.34;;;4.47;100.00
81802;BME280;71199;52.490;5.448;2024-03-02T06:27:25;100112.09;;;4.43;100.00
81802;BME280;71199;52.490;5.448;2024-03-02T06:29:50;100109.78;;;4.48;100.00
81802;BME280;71199;52.490;5.448;2024-03-02T06:32:16;100114.56;;;4.36;100.00
81802;BME280;71199;52.490;5.448;2024-03-02T06:34:42;100126.13;;;4.38;100.00
81802;BME280;71199;52.490;5.448;2024-03-02T06:37:07;100123.75;;;4.35;100.00
81802;BME280;71199;52.490;5.448;2024-03-02T06:39:32;100122.81;;;4.44;100.00
81802;BME280;71199;52.490;5.448;2024-03-02T06:41:59;100129.53;;;4.50;100.00
81802;BME280;71199;52.490;5.448;2024-03-02T06:44:25;100124.94;;;4.51;100.00
81802;BME280;71199;52.490;5.448;2024-03-02T06:46:50;100126.84;;;4.40;100.00
81802;BME280;71199;52.490;5.448;2024-03-02T06:49:16;100138.28;;;4.44;100.00
81802;BME280;71199;52.490;5.448;2024-03-02T06:51:43;100144.84;;;4.51;100.00
81802;BME280;71199;52.490;5.448;2024-03-02T06:54:10;100133.19;;;4.59;100.00
81802;BME280;71199;52.490;5.448;2024-03-02T06:56:35;100143.19;;;4.68;100.00
81802;BME280;71199;52.490;5.448;2024-03-02T06:59:00;100141.25;;;4.78;100.00
81802;BME280;71199;52.490;5.448;2024-03-02T07:01:26;100134.81;;;4.97;100.00
81802;BME280;71199;52.490;5.448;2024-03-02T07:03:52;100141.38;;;5.04;100.00
81802;BME280;71199;52.490;5.448;2024-03-02T07:06:17;100138.16;;;5.09;100.00
81802;BME280;71199;52.490;5.448;2024-03-02T07:08:42;100143.97;;;5.14;100.00
81802;BME280;71199;52.490;5.448;2024-03-02T07:11:08;100145.16;;;5.12;100.00
81802;BME280;71199;52.490;5.448;2024-03-02T07:13:33;100141.34;;;5.22;100.00
81802;BME280;71199;52.490;5.448;2024-03-02T07:15:58;100142.22;;;5.23;100.00
81802;BME280;71199;52.490;5.448;2024-03-02T07:18:35;100139.31;;;5.42;100.00
81802;BME280;71199;52.490;5.448;2024-03-02T07:21:09;100139.53;;;5.49;100.00
81802;BME280;71199;52.490;5.448;2024-03-02T07:23:35;100140.91;;;5.53;100.00
81802;BME280;71199;52.490;5.448;2024-03-02T07:26:01;100145.03;;;5.57;100.00
81802;BME280;71199;52.490;5.448;2024-03-02T07:28:27;100144.88;;;5.77;100.00
81802;BME280;71199;52.490;5.448;2024-03-02T07:30:59;100141.16;;;5.86;100.00
81802;BME280;71199;52.490;5.448;2024-03-02T07:33:25;100148.09;;;5.98;100.00
81802;BME280;71199;52.490;5.448;2024-03-02T07:35:50;100152.81;;;6.14;100.00
81802;BME280;71199;52.490;5.448;2024-03-02T07:38:16;100149.50;;;6.37;100.00
81802;BME280;71199;52.490;5.448;2024-03-02T07:40:42;100149.75;;;6.52;100.00
81802;BME280;71199;52.490;5.448;2024-03-02T07:43:07;100152.19;;;6.71;100.00
81802;BME280;71199;52.490;5.448;2024-03-02T07:45:36;100154.47;;;6.84;100.00
81802;BME280;71199;52.490;5.448;2024-03-02T07:48:02;100161.13;;;6.98;100.00
81802;BME280;71199;52.490;5.448;2024-03-02T07:50:29;100168.69;;;7.12;100.00
81802;BME280;71199;52.490;5.448;2024-03-02T07:52:55;100164.97;;;7.21;100.00
81802;BME280;71199;52.490;5.448;2024-03-02T07:55:21;100164.81;;;7.39;100.00
81802;BME280;71199;52.490;5.448;2024-03-02T07:57:46;100168.03;;;7.43;100.00
81802;BME280;71199;52.490;5.448;2024-03-02T08:00:12;100176.09;;;7.53;100.00
81802;BME280;71199;52.490;5.448;2024-03-02T08:02:37;100176.63;;;7.56;100.00
81802;BME280;71199;52.490;5.448;2024-03-02T08:05:03;100178.84;;;7.69;100.00
81802;BME280;71199;52.490;5.448;2024-03-02T08:07:29;100178.31;;;7.65;100.00
81802;BME280;71199;52.490;5.448;2024-03-02T08:09:54;100178.84;;;7.69;100.00
81802;BME280;71199;52.490;5.448;2024-03-02T08:12:20;100177.47;;;7.65;100.00
81802;BME280;71199;52.490;5.448;2024-03-02T08:14:48;100185.50;;;7.75;100.00
81802;BME280;71199;52.490;5.448;2024-03-02T08:17:14;100184.81;;;7.73;100.00
81802;BME280;71199;52.490;5.448;2024-03-02T08:19:39;100193.03;;;7.81;100.00
81802;BME280;71199;52.490;5.448;2024-03-02T08:22:04;100199.19;;;7.83;100.00
81802;BME280;71199;52.490;5.448;2024-03-02T08:24:30;100189.41;;;7.88;100.00
81802;BME280;71199;52.490;5.448;2024-03-02T08:26:55;100189.44;;;7.64;100.00
81802;BME280;71199;52.490;5.448;2024-03-02T08:29:21;100190.63;;;7.70;100.00
81802;BME280;71199;52.490;5.448;2024-03-02T08:31:46;100187.56;;;7.73;100.00
81802;BME280;71199;52.490;5.448;2024-03-02T08:34:12;100188.56;;;7.72;100.00
81802;BME280;71199;52.490;5.448;2024-03-02T08:36:37;100192.50;;;7.69;100.00
81802;BME280;71199;52.490;5.448;2024-03-02T08:39:03;100196.59;;;7.65;100.00
81802;BME280;71199;52.490;5.448;2024-03-02T08:41:37;100193.53;;;7.60;100.00
81802;BME280;71199;52.490;5.448;2024-03-02T08:44:03;100192.66;;;7.67;100.00
81802;BME280;71199;52.490;5.448;2024-03-02T08:46:28;100198.13;;;7.84;100.00
81802;BME280;71199;52.490;5.448;2024-03-02T08:48:54;100203.59;;;8.00;100.00
81802;BME280;71199;52.490;5.448;2024-03-02T08:51:19;100200.00;;;8.16;100.00
81802;BME280;71199;52.490;5.448;2024-03-02T08:53:44;100200.63;;;8.35;100.00
81802;BME280;71199;52.490;5.448;2024-03-02T08:56:10;100200.28;;;8.46;100.00
81802;BME280;71199;52.490;5.448;2024-03-02T08:58:35;100197.19;;;8.57;100.00
81802;BME280;71199;52.490;5.448;2024-03-02T09:01:01;100202.78;;;8.72;99.07
81802;BME280;71199;52.490;5.448;2024-03-02T09:03:26;100206.25;;;8.58;98.88
81802;BME280;71199;52.490;5.448;2024-03-02T09:05:52;100207.59;;;8.62;100.00
81802;BME280;71199;52.490;5.448;2024-03-02T09:08:17;100192.50;;;8.74;100.00
81802;BME280;71199;52.490;5.448;2024-03-02T09:10:43;100191.25;;;8.85;98.20
81802;BME280;71199;52.490;5.448;2024-03-02T09:13:09;100186.59;;;8.94;98.39
81802;BME280;71199;52.490;5.448;2024-03-02T09:15:34;100181.50;;;8.82;97.39
81802;BME280;71199;52.490;5.448;2024-03-02T09:18:03;100189.66;;;8.99;96.90
81802;BME280;71199;52.490;5.448;2024-03-02T09:20:28;100188.97;;;8.97;96.23
81802;BME280;71199;52.490;5.448;2024-03-02T09:22:53;100186.91;;;8.99;95.25
81802;BME280;71199;52.490;5.448;2024-03-02T09:25:20;100195.97;;;8.99;96.35
81802;BME280;71199;52.490;5.448;2024-03-02T09:27:45;100187.94;;;8.98;94.60
81802;BME280;71199;52.490;5.448;2024-03-02T09:30:11;100192.28;;;8.84;94.35
81802;BME280;71199;52.490;5.448;2024-03-02T09:32:37;100191.75;;;8.88;95.63
81802;BME280;71199;52.490;5.448;2024-03-02T09:35:03;100192.22;;;9.00;94.93
81802;BME280;71199;52.490;5.448;2024-03-02T09:37:28;100196.16;;;8.98;94.22
81802;BME280;71199;52.490;5.448;2024-03-02T09:39:54;100185.88;;;9.00;95.17
81802;BME280;71199;52.490;5.448;2024-03-02T09:42:20;100194.94;;;9.00;94.32
81802;BME280;71199;52.490;5.448;2024-03-02T09:44:45;100198.19;;;9.04;94.17
81802;BME280;71199;52.490;5.448;2024-03-02T09:47:11;100201.91;;;9.11;95.65
81802;BME280;71199;52.490;5.448;2024-03-02T09:49:36;100203.44;;;9.14;92.66
81802;BME280;71199;52.490;5.448;2024-03-02T09:52:02;100198.50;;;9.09;94.71
81802;BME280;71199;52.490;5.448;2024-03-02T09:54:28;100204.66;;;9.11;92.37
81802;BME280;71199;52.490;5.448;2024-03-02T09:56:54;100199.03;;;9.04;93.51
81802;BME280;71199;52.490;5.448;2024-03-02T09:59:19;100200.25;;;9.02;92.61
81802;BME280;71199;52.490;5.448;2024-03-02T10:02:11;100216.72;;;9.02;95.66
81802;BME280;71199;52.490;5.448;2024-03-02T10:04:37;100207.09;;;9.06;94.87
81802;BME280;71199;52.490;5.448;2024-03-02T10:07:12;100207.66;;;9.24;93.47
81802;BME280;71199;52.490;5.448;2024-03-02T10:09:38;100211.44;;;9.23;92.21
81802;BME280;71199;52.490;5.448;2024-03-02T10:12:05;100203.94;;;9.17;90.22
81802;BME280;71199;52.490;5.448;2024-03-02T10:14:31;100214.06;;;9.17;90.58
81802;BME280;71199;52.490;5.448;2024-03-02T10:17:05;100208.53;;;9.25;91.01
81802;BME280;71199;52.490;5.448;2024-03-02T10:19:31;100213.25;;;9.08;89.65
81802;BME280;71199;52.490;5.448;2024-03-02T10:21:59;100206.00;;;9.15;92.13
81802;BME280;71199;52.490;5.448;2024-03-02T10:24:24;100202.16;;;9.24;89.47
81802;BME280;71199;52.490;5.448;2024-03-02T10:26:51;100202.31;;;9.31;90.69
81802;BME280;71199;52.490;5.448;2024-03-02T10:29:17;100199.56;;;9.31;88.09
81802;BME280;71199;52.490;5.448;2024-03-02T10:31:44;100196.09;;;9.37;87.12
81802;BME280;71199;52.490;5.448;2024-03-02T10:34:11;100204.38;;;9.29;86.66
81802;BME280;71199;52.490;5.448;2024-03-02T10:36:40;100195.94;;;9.31;88.05
81802;BME280;71199;52.490;5.448;2024-03-02T10:39:06;100194.75;;;9.33;85.64
81802;BME280;71199;52.490;5.448;2024-03-02T10:41:34;100203.00;;;9.33;86.24
81802;BME280;71199;52.490;5.448;2024-03-02T10:44:02;100190.97;;;9.34;85.72
81802;BME280;71199;52.490;5.448;2024-03-02T10:46:29;100187.69;;;9.39;84.68
81802;BME280;71199;52.490;5.448;2024-03-02T10:48:55;100186.16;;;9.36;85.84
81802;BME280;71199;52.490;5.448;2024-03-02T10:51:24;100187.69;;;9.39;84.08
81802;BME280;71199;52.490;5.448;2024-03-02T10:53:50;100182.19;;;9.39;82.67
81802;BME280;71199;52.490;5.448;2024-03-02T10:56:22;100183.41;;;9.36;83.47
81802;BME280;71199;52.490;5.448;2024-03-02T10:58:57;100179.09;;;9.42;82.04
81802;BME280;71199;52.490;5.448;2024-03-02T11:01:26;100174.13;;;9.45;84.13
81802;BME280;71199;52.490;5.448;2024-03-02T11:03:54;100170.44;;;9.53;81.23
81802;BME280;71199;52.490;5.448;2024-03-02T11:06:22;100174.06;;;9.54;81.24
81802;BME280;71199;52.490;5.448;2024-03-02T11:08:49;100159.72;;;9.43;80.08
81802;BME280;71199;52.490;5.448;2024-03-02T11:11:28;100170.81;;;9.50;80.34
81802;BME280;71199;52.490;5.448;2024-03-02T11:13:56;100165.88;;;9.45;83.51
81802;BME280;71199;52.490;5.448;2024-03-02T11:16:38;100168.41;;;9.47;81.19
81802;BME280;71199;52.490;5.448;2024-03-02T11:19:10;100166.91;;;9.44;80.83
81802;BME280;71199;52.490;5.448;2024-03-02T11:21:37;100163.59;;;9.49;81.52
81802;BME280;71199;52.490;5.448;2024-03-02T11:27:05;100159.78;;;9.58;80.92
81802;BME280;71199;52.490;5.448;2024-03-02T11:32:03;100160.38;;;9.68;81.90
81802;BME280;71199;52.490;5.448;2024-03-02T11:34:36;100163.47;;;9.65;80.67
81802;BME280;71199;52.490;5.448;2024-03-02T11:37:05;100171.72;;;9.65;80.32
81802;BME280;71199;52.490;5.448;2024-03-02T11:39:31;100169.47;;;9.69;77.89
81802;BME280;71199;52.490;5.448;2024-03-02T11:41:57;100169.28;;;9.71;78.55
81802;BME280;71199;52.490;5.448;2024-03-02T11:44:26;100171.84;;;9.72;79.32
81802;BME280;71199;52.490;5.448;2024-03-02T11:46:58;100166.81;;;9.76;78.92
81802;BME280;71199;52.490;5.448;2024-03-02T11:49:55;100161.34;;;9.76;78.00
81802;BME280;71199;52.490;5.448;2024-03-02T11:52:22;100160.88;;;9.72;79.18
81802;BME280;71199;52.490;5.448;2024-03-02T11:54:47;100160.06;;;9.86;79.20
81802;BME280;71199;52.490;5.448;2024-03-02T11:57:21;100145.09;;;9.89;77.51
81802;BME280;71199;52.490;5.448;2024-03-02T11:59:48;100145.78;;;9.91;79.49
81802;BME280;71199;52.490;5.448;2024-03-02T12:02:19;100163.41;;;9.97;80.43
81802;BME280;71199;52.490;5.448;2024-03-02T12:04:46;100152.50;;;10.03;82.78
81802;BME280;71199;52.490;5.448;2024-03-02T12:07:22;100148.84;;;10.11;81.98
81802;BME280;71199;52.490;5.448;2024-03-02T12:09:49;100141.53;;;10.18;79.62
81802;BME280;71199;52.490;5.448;2024-03-02T12:12:15;100136.81;;;10.12;78.17
81802;BME280;71199;52.490;5.448;2024-03-02T12:14:52;100133.97;;;10.20;75.92
81802;BME280;71199;52.490;5.448;2024-03-02T12:17:20;100137.28;;;10.16;76.29
81802;BME280;71199;52.490;5.448;2024-03-02T12:19:45;100127.53;;;10.13;77.40
81802;BME280;71199;52.490;5.448;2024-03-02T12:22:11;100132.06;;;10.21;78.95
81802;BME280;71199;52.490;5.448;2024-03-02T12:24:37;100129.31;;;10.21;76.97
81802;BME280;71199;52.490;5.448;2024-03-02T12:27:03;100132.63;;;10.16;78.10
81802;BME280;71199;52.490;5.448;2024-03-02T12:29:29;100129.56;;;10.34;76.94
81802;BME280;71199;52.490;5.448;2024-03-02T12:31:55;100123.84;;;10.21;78.38
81802;BME280;71199;52.490;5.448;2024-03-02T12:34:21;100127.84;;;10.33;76.45
81802;BME280;71199;52.490;5.448;2024-03-02T12:36:48;100125.75;;;10.35;78.16
81802;BME280;71199;52.490;5.448;2024-03-02T12:39:17;100123.41;;;10.47;76.49
81802;BME280;71199;52.490;5.448;2024-03-02T12:41:43;100123.41;;;10.47;77.80
81802;BME280;71199;52.490;5.448;2024-03-02T12:44:08;100128.31;;;10.52;73.21
81802;BME280;71199;52.490;5.448;2024-03-02T12:46:34;100124.25;;;10.47;73.04
81802;BME280;71199;52.490;5.448;2024-03-02T12:49:27;100131.56;;;10.40;73.31
81802;BME280;71199;52.490;5.448;2024-03-02T12:51:53;100124.06;;;10.34;73.61
81802;BME280;71199;52.490;5.448;2024-03-02T12:54:22;100129.84;;;10.39;73.66
81802;BME280;71199;52.490;5.448;2024-03-02T12:56:48;100112.03;;;10.50;73.42
81802;BME280;71199;52.490;5.448;2024-03-02T12:59:21;100113.16;;;10.56;73.18
81802;BME280;71199;52.490;5.448;2024-03-02T13:01:53;100103.13;;;10.63;72.74